createdAt,value
2022-10-26T00:01:13.994Z,4.67
2022-10-26T00:03:43.316Z,4.33
2022-10-26T00:06:19.685Z,4.90
2022-10-26T00:08:47.466Z,5.00
2022-10-26T00:11:15.609Z,4.27
2022-10-26T00:13:42.900Z,4.50
2022-10-26T00:16:21.789Z,4.43
2022-10-26T00:18:49.157Z,4.03
2022-10-26T00:21:16.469Z,4.40
2022-10-26T00:23:43.307Z,3.87
2022-10-26T00:26:10.755Z,4.10
2022-10-26T00:28:37.547Z,3.80
2022-10-26T00:31:08.551Z,4.00
2022-10-26T00:33:35.715Z,3.60
2022-10-26T00:36:02.541Z,3.43
2022-10-26T00:38:29.873Z,3.23
2022-10-26T00:43:27.479Z,4.10
2022-10-26T00:45:57.203Z,4.17
2022-10-26T00:48:33.662Z,4.10
2022-10-26T00:51:06.529Z,4.17
2022-10-26T00:53:33.788Z,4.00
2022-10-26T00:56:01.680Z,4.33
2022-10-26T00:58:29.453Z,4.07
2022-10-26T01:00:56.255Z,4.10
2022-10-26T01:03:25.382Z,4.13
2022-10-26T01:05:57.136Z,3.80
2022-10-26T01:08:25.022Z,3.83
2022-10-26T01:10:52.281Z,4.70
2022-10-26T01:13:19.513Z,4.47
2022-10-26T01:16:51.016Z,4.10
2022-10-26T01:19:57.418Z,4.77
2022-10-26T01:22:42.665Z,4.43
2022-10-26T01:25:28.532Z,4.47
2022-10-26T01:27:56.124Z,4.73
2022-10-26T01:30:33.172Z,4.70
2022-10-26T01:33:09.773Z,4.63
2022-10-26T01:36:01.500Z,5.17
2022-10-26T01:38:56.716Z,4.80
2022-10-26T01:41:47.134Z,5.00
2022-10-26T01:44:32.701Z,5.40
2022-10-26T01:47:01.638Z,5.80
2022-10-26T01:49:40.225Z,6.10
2022-10-26T01:52:09.861Z,6.00
2022-10-26T01:57:14.153Z,6.17
2022-10-26T02:00:12.331Z,6.30
2022-10-26T02:03:09.829Z,7.07
2022-10-26T02:05:54.408Z,6.73
2022-10-26T02:08:36.081Z,6.13
2022-10-26T02:11:12.768Z,6.33
2022-10-26T02:13:50.323Z,6.27
2022-10-26T02:16:48.149Z,6.53
2022-10-26T02:19:44.084Z,5.77
2022-10-26T02:22:29.999Z,5.70
2022-10-26T02:24:59.822Z,6.20
2022-10-26T02:27:32.030Z,6.30
2022-10-26T02:30:01.824Z,6.40
2022-10-26T02:32:35.213Z,6.00
2022-10-26T02:35:05.672Z,5.60
2022-10-26T02:37:34.573Z,6.47
2022-10-26T02:40:07.686Z,6.30
2022-10-26T02:42:35.372Z,6.00
2022-10-26T02:45:07.651Z,5.63
2022-10-26T02:47:34.738Z,5.63
2022-10-26T02:50:01.936Z,6.07
2022-10-26T02:52:50.025Z,5.33
2022-10-26T02:55:27.909Z,5.90
2022-10-26T02:58:13.358Z,6.07
2022-10-26T03:00:40.480Z,5.80
2022-10-26T03:03:07.325Z,5.93
2022-10-26T03:05:36.682Z,6.03
2022-10-26T03:08:03.830Z,6.50
2022-10-26T03:10:32.798Z,5.83
2022-10-26T03:12:59.624Z,6.03
2022-10-26T03:15:26.430Z,6.00
2022-10-26T03:17:53.216Z,6.00
2022-10-26T03:20:20.029Z,6.50
2022-10-26T03:22:48.598Z,5.77
2022-10-26T03:25:15.713Z,6.03
2022-10-26T03:27:42.917Z,6.60
2022-10-26T03:30:10.363Z,6.17
2022-10-26T03:32:38.092Z,6.30
2022-10-26T03:35:05.229Z,6.03
2022-10-26T03:37:32.042Z,5.87
2022-10-26T03:39:58.838Z,5.97
2022-10-26T03:42:25.597Z,6.30
2022-10-26T03:44:52.398Z,5.70
2022-10-26T03:47:19.211Z,5.33
2022-10-26T03:49:46.291Z,5.70
2022-10-26T03:52:13.138Z,5.47
2022-10-26T03:54:39.938Z,5.30
2022-10-26T03:57:06.732Z,5.63
2022-10-26T03:59:33.512Z,5.13
2022-10-26T04:02:00.344Z,5.30
2022-10-26T04:04:27.306Z,5.00
2022-10-26T04:06:54.261Z,5.03
2022-10-26T04:09:21.047Z,4.57
2022-10-26T04:11:47.818Z,4.70
2022-10-26T04:14:14.616Z,4.60
2022-10-26T04:16:41.501Z,4.40
2022-10-26T04:19:08.286Z,4.60
2022-10-26T04:21:35.454Z,4.87
2022-10-26T04:24:02.708Z,4.17
2022-10-26T04:26:29.474Z,4.73
2022-10-26T04:28:56.256Z,4.83
2022-10-26T04:31:23.054Z,4.83
2022-10-26T04:33:49.865Z,4.60
2022-10-26T04:36:16.708Z,4.90
2022-10-26T04:38:43.491Z,5.33
2022-10-26T04:41:10.291Z,5.27
2022-10-26T04:43:37.086Z,5.50
2022-10-26T04:46:03.858Z,5.13
2022-10-26T04:48:30.685Z,5.60
2022-10-26T04:51:01.126Z,5.43
2022-10-26T04:53:28.461Z,5.47
2022-10-26T04:56:00.323Z,5.87
2022-10-26T04:58:28.932Z,6.27
2022-10-26T05:00:55.959Z,5.90
2022-10-26T05:03:22.886Z,6.00
2022-10-26T05:05:49.748Z,5.67
2022-10-26T05:08:16.872Z,5.43
2022-10-26T05:10:48.470Z,4.90
2022-10-26T05:13:15.352Z,5.20
2022-10-26T05:15:42.248Z,5.47
2022-10-26T05:18:09.440Z,4.83
2022-10-26T05:20:37.109Z,5.67
2022-10-26T05:23:07.905Z,5.70
2022-10-26T05:25:36.991Z,5.63
2022-10-26T05:28:11.604Z,5.50
2022-10-26T05:30:39.120Z,6.30
2022-10-26T05:33:07.531Z,5.73
2022-10-26T05:35:34.344Z,5.93
2022-10-26T05:38:08.776Z,5.70
2022-10-26T05:40:35.666Z,5.37
2022-10-26T05:43:03.061Z,5.87
2022-10-26T05:45:30.385Z,5.60
2022-10-26T05:48:00.017Z,4.90
2022-10-26T05:50:29.542Z,4.70
2022-10-26T05:52:56.343Z,5.43
2022-10-26T05:55:23.810Z,5.97
2022-10-26T05:57:51.281Z,5.33
2022-10-26T06:00:25.447Z,5.73
2022-10-26T06:03:14.173Z,6.30
2022-10-26T06:05:57.351Z,5.43
2022-10-26T06:08:27.133Z,5.20
2022-10-26T06:10:55.797Z,5.57
2022-10-26T06:13:23.349Z,4.73
2022-10-26T06:16:14.393Z,8.43
2022-10-26T06:19:14.736Z,6.70
2022-10-26T06:22:00.745Z,7.37
2022-10-26T06:24:54.015Z,6.60
2022-10-26T06:27:57.181Z,6.40
2022-10-26T06:30:23.999Z,6.37
2022-10-26T06:33:01.398Z,6.20
2022-10-26T06:35:48.542Z,6.70
2022-10-26T06:38:19.776Z,6.83
2022-10-26T06:40:51.477Z,5.97
2022-10-26T06:43:26.618Z,5.37
2022-10-26T06:46:46.252Z,5.80
2022-10-26T06:49:31.442Z,5.03
2022-10-26T06:52:22.290Z,5.57
2022-10-26T06:54:52.442Z,5.40
2022-10-26T06:57:22.512Z,5.70
2022-10-26T07:00:20.746Z,6.07
2022-10-26T07:02:48.734Z,6.13
2022-10-26T07:05:16.188Z,5.57
2022-10-26T07:07:45.757Z,5.53
2022-10-26T07:10:14.613Z,5.80
2022-10-26T07:12:41.403Z,6.33
2022-10-26T07:17:49.327Z,4.43
2022-10-26T07:20:18.749Z,5.07
2022-10-26T07:22:50.046Z,5.07
2022-10-26T07:25:16.888Z,5.00
2022-10-26T07:27:43.701Z,4.80
2022-10-26T07:30:10.973Z,4.73
2022-10-26T07:32:37.894Z,5.07
2022-10-26T07:35:05.285Z,5.20
2022-10-26T07:37:32.061Z,5.30
2022-10-26T07:40:02.520Z,4.57
2022-10-26T07:42:30.921Z,4.70
2022-10-26T07:44:57.723Z,4.13
2022-10-26T07:47:24.506Z,4.20
2022-10-26T07:49:51.279Z,3.97
2022-10-26T07:52:18.070Z,3.97
2022-10-26T07:54:44.833Z,4.10
2022-10-26T07:57:11.627Z,4.10
2022-10-26T07:59:38.498Z,3.83
2022-10-26T08:02:05.383Z,4.30
2022-10-26T08:04:32.323Z,4.20
2022-10-26T08:06:59.177Z,3.40
2022-10-26T08:09:25.989Z,3.40
2022-10-26T08:11:52.780Z,3.13
2022-10-26T08:14:19.539Z,3.10
2022-10-26T08:16:46.533Z,2.90
2022-10-26T08:19:13.352Z,3.00
2022-10-26T08:21:40.735Z,2.73
2022-10-26T08:24:08.419Z,2.30
2022-10-26T08:26:35.218Z,2.77
2022-10-26T08:29:02.017Z,2.70
2022-10-26T08:31:28.869Z,2.90
2022-10-26T08:33:55.825Z,2.50
2022-10-26T08:36:28.171Z,2.60
2022-10-26T08:38:55.020Z,2.23
2022-10-26T08:41:37.449Z,2.40
2022-10-26T08:44:25.376Z,2.40
2022-10-26T08:47:05.471Z,2.20
2022-10-26T08:50:00.329Z,2.03
2022-10-26T08:52:37.152Z,2.20
2022-10-26T08:55:12.185Z,2.30
2022-10-26T08:57:44.054Z,2.00
2022-10-26T09:00:25.439Z,1.80
2022-10-26T09:02:53.473Z,1.90
2022-10-26T09:05:48.901Z,1.53
2022-10-26T09:08:40.067Z,1.80
2022-10-26T09:11:23.596Z,1.77
2022-10-26T09:14:15.832Z,2.03
2022-10-26T09:16:57.767Z,2.00
2022-10-26T09:19:51.841Z,1.73
2022-10-26T09:22:31.641Z,2.10
2022-10-26T09:25:24.814Z,2.30
2022-10-26T09:28:01.191Z,2.00
2022-10-26T09:30:30.418Z,1.90
2022-10-26T09:33:16.077Z,2.23
2022-10-26T09:35:53.923Z,2.00
2022-10-26T09:38:43.708Z,1.87
2022-10-26T09:41:43.257Z,2.10
2022-10-26T09:44:36.018Z,1.70
2022-10-26T09:47:38.539Z,1.80
2022-10-26T09:50:34.401Z,1.90
2022-10-26T09:53:01.595Z,1.83
2022-10-26T09:55:30.968Z,1.87
2022-10-26T09:58:03.940Z,1.87
2022-10-26T10:00:31.464Z,2.00
2022-10-26T10:02:58.986Z,1.77
2022-10-26T10:05:50.314Z,1.90
2022-10-26T10:08:18.239Z,1.70
2022-10-26T10:11:08.463Z,1.93
2022-10-26T10:13:45.127Z,2.20
2022-10-26T10:16:19.969Z,1.60
2022-10-26T10:18:55.846Z,2.10
2022-10-26T10:21:45.570Z,1.60
2022-10-26T10:24:30.003Z,1.87
2022-10-26T10:27:05.533Z,1.60
2022-10-26T10:29:40.573Z,1.73
2022-10-26T10:32:22.765Z,1.60
2022-10-26T10:34:51.468Z,2.00
2022-10-26T10:37:42.674Z,2.07
2022-10-26T10:40:18.970Z,1.80
2022-10-26T10:42:47.763Z,1.80
2022-10-26T10:45:24.014Z,2.30
2022-10-26T10:48:01.525Z,1.90
2022-10-26T10:50:30.353Z,1.77
2022-10-26T10:53:33.605Z,2.13
2022-10-26T10:56:24.007Z,1.97
2022-10-26T10:59:20.888Z,2.17
2022-10-26T11:02:10.553Z,1.70
2022-10-26T11:05:04.667Z,1.50
2022-10-26T11:07:39.443Z,2.53
2022-10-26T11:10:08.916Z,1.90
2022-10-26T11:12:49.946Z,1.40
2022-10-26T11:15:31.821Z,1.70
2022-10-26T11:18:11.272Z,1.50
2022-10-26T11:20:45.165Z,1.50
2022-10-26T11:23:33.717Z,1.87
2022-10-26T11:26:20.517Z,1.47
2022-10-26T11:28:55.990Z,1.77
2022-10-26T11:31:37.010Z,1.37
2022-10-26T11:34:12.659Z,1.67
2022-10-26T11:36:43.800Z,1.70
2022-10-26T11:39:36.898Z,1.50
2022-10-26T11:42:15.541Z,1.70
2022-10-26T11:45:13.866Z,1.50
2022-10-26T11:47:50.110Z,1.60
2022-10-26T11:50:30.682Z,1.50
2022-10-26T11:53:24.965Z,1.73
2022-10-26T11:55:54.488Z,1.50
2022-10-26T11:58:27.348Z,1.67
2022-10-26T12:01:01.954Z,1.50
2022-10-26T12:03:40.348Z,1.90
2022-10-26T12:06:07.276Z,1.93
2022-10-26T12:08:38.985Z,1.93
2022-10-26T12:11:29.447Z,2.03
2022-10-26T12:14:25.389Z,1.87
2022-10-26T12:17:11.466Z,2.00
2022-10-26T12:19:55.792Z,1.90
2022-10-26T12:22:31.280Z,1.77
2022-10-26T12:25:15.156Z,1.70
2022-10-26T12:27:42.238Z,1.70
2022-10-26T12:30:12.036Z,1.90
2022-10-26T12:32:41.505Z,1.73
2022-10-26T12:35:34.677Z,1.70
2022-10-26T12:38:29.124Z,1.60
2022-10-26T12:41:18.292Z,1.50
2022-10-26T12:46:17.230Z,1.57
2022-10-26T12:48:54.105Z,1.40
2022-10-26T12:51:22.297Z,2.00
2022-10-26T12:54:15.714Z,1.87
2022-10-26T12:57:02.038Z,1.53
2022-10-26T13:00:02.088Z,1.77
2022-10-26T13:02:59.286Z,1.70
2022-10-26T13:06:05.729Z,1.90
2022-10-26T13:08:49.747Z,1.80
2022-10-26T13:11:35.829Z,1.37
2022-10-26T13:14:06.848Z,1.50
2022-10-26T13:16:34.128Z,1.47
2022-10-26T13:19:01.325Z,1.60
2022-10-26T13:21:28.509Z,1.52
2022-10-26T13:23:57.997Z,1.70
2022-10-26T13:26:28.004Z,1.70
2022-10-26T13:29:00.648Z,1.70
2022-10-26T13:31:34.481Z,1.67
2022-10-26T13:34:04.616Z,1.73
2022-10-26T13:36:45.262Z,1.53
2022-10-26T13:39:21.024Z,1.40
2022-10-26T13:41:52.369Z,1.67
2022-10-26T13:44:37.585Z,1.70
2022-10-26T13:47:17.631Z,1.60
2022-10-26T13:49:47.952Z,2.03
2022-10-26T13:52:55.681Z,1.50
2022-10-26T13:55:31.236Z,1.93
2022-10-26T13:58:20.725Z,1.50
2022-10-26T14:01:09.013Z,1.87
2022-10-26T14:03:36.551Z,1.60
2022-10-26T14:06:34.297Z,1.80
2022-10-26T14:09:14.947Z,1.67
2022-10-26T14:12:00.464Z,1.93
2022-10-26T14:14:35.226Z,1.83
2022-10-26T14:17:03.656Z,2.20
2022-10-26T14:19:35.438Z,2.30
2022-10-26T14:22:03.178Z,2.37
2022-10-26T14:24:48.482Z,2.40
2022-10-26T14:27:17.585Z,2.47
2022-10-26T14:29:49.889Z,2.40
2022-10-26T14:32:30.235Z,2.27
2022-10-26T14:34:57.513Z,2.10
2022-10-26T14:37:46.771Z,2.17
2022-10-26T14:40:20.426Z,1.90
2022-10-26T14:42:54.864Z,2.10
2022-10-26T14:45:43.362Z,1.97
2022-10-26T14:48:35.776Z,1.73
2022-10-26T14:51:09.472Z,2.23
2022-10-26T14:53:40.052Z,2.03
2022-10-26T14:56:30.483Z,2.07
2022-10-26T14:58:58.513Z,2.20
2022-10-26T15:01:31.619Z,2.00
2022-10-26T15:04:06.537Z,2.43
2022-10-26T15:06:40.330Z,2.40
2022-10-26T15:09:31.969Z,2.20
2022-10-26T15:11:59.594Z,2.00
2022-10-26T15:14:26.421Z,2.30
2022-10-26T15:16:56.549Z,6.83
2022-10-26T15:19:24.188Z,40.87
2022-10-26T15:21:53.339Z,29.33
2022-10-26T15:24:39.550Z,17.73
2022-10-26T15:27:15.904Z,7.63
2022-10-26T15:29:46.934Z,4.73
2022-10-26T15:32:34.120Z,3.70
2022-10-26T15:35:36.419Z,2.33
2022-10-26T15:38:03.262Z,2.60
2022-10-26T15:40:32.101Z,2.20
2022-10-26T15:43:00.804Z,2.80
2022-10-26T15:45:32.928Z,2.33
2022-10-26T15:48:17.658Z,2.87
2022-10-26T15:50:44.577Z,2.57
2022-10-26T15:53:19.505Z,3.23
2022-10-26T15:55:47.261Z,3.73
2022-10-26T15:58:15.720Z,2.60
2022-10-26T16:00:42.765Z,2.93
2022-10-26T16:03:21.708Z,2.87
2022-10-26T16:05:59.550Z,2.33
2022-10-26T16:08:31.438Z,2.00
2022-10-26T16:10:58.717Z,2.40
2022-10-26T16:13:26.726Z,1.90
2022-10-26T16:15:53.570Z,1.93
2022-10-26T16:18:20.460Z,2.30
2022-10-26T16:20:47.393Z,2.40
2022-10-26T16:23:14.646Z,2.20
2022-10-26T16:25:46.605Z,2.20
2022-10-26T16:28:16.229Z,2.43
2022-10-26T16:30:44.078Z,2.23
2022-10-26T16:33:11.156Z,2.40
2022-10-26T16:35:38.174Z,3.00
2022-10-26T16:38:05.158Z,3.37
2022-10-26T16:40:31.986Z,2.67
2022-10-26T16:42:58.918Z,2.87
2022-10-26T16:45:25.714Z,2.30
2022-10-26T16:47:52.802Z,2.43
2022-10-26T16:50:22.028Z,2.70
2022-10-26T16:52:48.816Z,2.53
2022-10-26T16:55:15.741Z,2.90
2022-10-26T16:57:42.583Z,2.37
2022-10-26T17:00:10.000Z,2.63
2022-10-26T17:02:36.853Z,2.73
2022-10-26T17:05:07.199Z,2.60
2022-10-26T17:07:35.008Z,2.67
2022-10-26T17:10:02.045Z,2.53
2022-10-26T17:12:29.581Z,2.67
2022-10-26T17:14:58.477Z,2.70
2022-10-26T17:17:25.385Z,2.50
2022-10-26T17:19:52.178Z,2.50
2022-10-26T17:22:19.049Z,2.40
2022-10-26T17:24:45.823Z,2.77
2022-10-26T17:27:12.621Z,2.80
2022-10-26T17:29:39.495Z,2.67
2022-10-26T17:32:06.343Z,2.63
2022-10-26T17:34:34.222Z,2.80
2022-10-26T17:37:01.004Z,2.90
2022-10-26T17:39:27.939Z,3.00
2022-10-26T17:41:54.708Z,2.83
2022-10-26T17:44:21.867Z,2.67
2022-10-26T17:46:48.668Z,2.63
2022-10-26T17:49:15.479Z,3.20
2022-10-26T17:51:42.361Z,3.27
2022-10-26T17:54:09.240Z,2.90
2022-10-26T17:56:36.107Z,2.37
2022-10-26T17:59:06.335Z,2.87
2022-10-26T18:01:33.313Z,2.67
2022-10-26T18:04:00.973Z,2.50
2022-10-26T18:06:27.879Z,2.70
2022-10-26T18:08:57.607Z,3.27
2022-10-26T18:11:27.229Z,2.70
2022-10-26T18:13:58.019Z,2.77
2022-10-26T18:16:26.444Z,2.73
2022-10-26T18:19:00.619Z,3.13
2022-10-26T18:21:30.786Z,2.43
2022-10-26T18:23:57.672Z,2.43
2022-10-26T18:26:28.706Z,2.70
2022-10-26T18:28:57.426Z,4.33
2022-10-26T18:31:26.420Z,9.93
2022-10-26T18:33:59.020Z,15.37
2022-10-26T18:36:27.595Z,10.10
2022-10-26T18:38:54.783Z,8.00
2022-10-26T18:41:23.618Z,4.80
2022-10-26T18:43:53.055Z,3.90
2022-10-26T18:46:28.107Z,4.13
2022-10-26T18:48:56.257Z,3.30
2022-10-26T18:51:28.680Z,3.53
2022-10-26T18:53:57.334Z,3.67
2022-10-26T18:56:25.003Z,3.80
2022-10-26T18:58:55.850Z,3.40
2022-10-26T19:01:29.073Z,3.60
2022-10-26T19:04:02.295Z,3.37
2022-10-26T19:06:38.328Z,4.23
2022-10-26T19:09:06.914Z,3.77
2022-10-26T19:11:34.408Z,4.33
2022-10-26T19:14:01.307Z,4.13
2022-10-26T19:16:49.843Z,4.07
2022-10-26T19:19:18.108Z,3.97
2022-10-26T19:21:47.210Z,4.20
2022-10-26T19:24:20.491Z,3.87
2022-10-26T19:26:48.563Z,3.93
2022-10-26T19:29:16.911Z,4.20
2022-10-26T19:31:45.849Z,4.93
2022-10-26T19:34:14.653Z,3.83
2022-10-26T19:36:44.875Z,4.60
2022-10-26T19:39:16.540Z,4.33
2022-10-26T19:41:44.670Z,4.23
2022-10-26T19:44:12.517Z,5.50
2022-10-26T19:46:40.067Z,4.60
2022-10-26T19:49:07.551Z,4.30
2022-10-26T19:51:34.613Z,4.67
2022-10-26T19:54:03.905Z,5.33
2022-10-26T19:56:36.057Z,4.47
2022-10-26T19:59:03.123Z,4.53
2022-10-26T20:01:30.010Z,4.10
2022-10-26T20:03:57.360Z,4.80
2022-10-26T20:06:24.406Z,4.40
2022-10-26T20:08:51.321Z,3.97
2022-10-26T20:11:19.765Z,4.20
2022-10-26T20:13:47.744Z,4.67
2022-10-26T20:16:17.111Z,5.07
2022-10-26T20:18:47.813Z,4.20
2022-10-26T20:21:17.119Z,4.47
2022-10-26T20:23:44.649Z,4.23
2022-10-26T20:26:18.214Z,4.77
2022-10-26T20:28:51.387Z,4.30
2022-10-26T20:31:18.547Z,4.10
2022-10-26T20:33:45.417Z,3.93
2022-10-26T20:36:12.192Z,4.20
2022-10-26T20:38:40.196Z,3.93
2022-10-26T20:41:11.994Z,4.70
2022-10-26T20:43:42.760Z,4.13
2022-10-26T20:46:25.355Z,4.00
2022-10-26T20:48:54.193Z,4.00
2022-10-26T20:52:21.169Z,4.60
2022-10-26T20:55:19.447Z,4.00
2022-10-26T20:57:57.986Z,4.13
2022-10-26T21:00:25.375Z,4.67
2022-10-26T21:02:52.539Z,4.50
2022-10-26T21:05:20.939Z,4.27
2022-10-26T21:07:47.856Z,4.13
2022-10-26T21:10:15.356Z,4.90
2022-10-26T21:12:42.460Z,5.23
2022-10-26T21:15:09.697Z,5.40
2022-10-26T21:17:36.549Z,5.83
2022-10-26T21:20:03.546Z,6.23
2022-10-26T21:22:30.376Z,6.10
2022-10-26T21:24:57.149Z,6.13
2022-10-26T21:27:23.939Z,5.33
2022-10-26T21:29:50.790Z,5.70
2022-10-26T21:32:17.568Z,6.03
2022-10-26T21:34:44.402Z,6.37
2022-10-26T21:37:11.287Z,5.67
2022-10-26T21:39:38.160Z,5.90
2022-10-26T21:42:04.946Z,5.10
2022-10-26T21:44:41.371Z,5.07
2022-10-26T21:47:09.905Z,4.80
2022-10-26T21:49:37.219Z,5.47
2022-10-26T21:52:04.421Z,5.40
2022-10-26T21:54:31.216Z,5.47
2022-10-26T21:56:58.071Z,4.97
2022-10-26T21:59:25.119Z,5.97
2022-10-26T22:01:52.089Z,5.60
2022-10-26T22:04:18.940Z,5.20
2022-10-26T22:06:45.734Z,4.77
2022-10-26T22:09:12.522Z,4.47
2022-10-26T22:11:39.328Z,2.90
2022-10-26T22:14:06.215Z,3.30
2022-10-26T22:16:33.619Z,2.60
2022-10-26T22:19:06.552Z,3.27
2022-10-26T22:21:39.941Z,3.07
2022-10-26T22:24:07.930Z,3.57
2022-10-26T22:26:36.897Z,3.77
2022-10-26T22:29:05.001Z,2.70
2022-10-26T22:31:36.706Z,3.30
2022-10-26T22:34:08.058Z,2.57
2022-10-26T22:36:35.632Z,3.10
2022-10-26T22:39:02.751Z,3.00
2022-10-26T22:41:29.569Z,2.97
2022-10-26T22:43:56.340Z,2.53
2022-10-26T22:46:26.227Z,2.40
2022-10-26T22:48:59.408Z,2.53
2022-10-26T22:51:30.383Z,2.87
2022-10-26T22:54:00.037Z,2.60
2022-10-26T22:56:28.730Z,3.17
2022-10-26T22:58:55.671Z,4.00
2022-10-26T23:01:30.971Z,3.43
2022-10-26T23:03:58.286Z,3.30
2022-10-26T23:06:27.616Z,1.80
2022-10-26T23:08:54.590Z,1.70
2022-10-26T23:11:23.282Z,2.60
2022-10-26T23:13:54.516Z,2.60
2022-10-26T23:16:21.940Z,2.33
2022-10-26T23:18:49.143Z,1.97
2022-10-26T23:21:17.258Z,1.97
2022-10-26T23:23:44.672Z,2.50
2022-10-26T23:26:15.873Z,3.23
2022-10-26T23:28:44.322Z,3.30
2022-10-26T23:31:18.860Z,2.93
2022-10-26T23:33:45.961Z,2.73
2022-10-26T23:36:12.996Z,2.57
2022-10-26T23:38:39.850Z,2.60
2022-10-26T23:41:09.454Z,1.90
2022-10-26T23:43:39.137Z,2.20
2022-10-26T23:46:06.106Z,2.83
2022-10-26T23:48:32.882Z,3.70
2022-10-26T23:50:59.675Z,3.47
2022-10-26T23:53:27.122Z,3.10
2022-10-26T23:55:54.025Z,3.63
2022-10-26T23:58:20.947Z,3.50
